createdAt,value
2019-02-15T00:00:49.346Z,0.90
2019-02-15T00:01:54.517Z,0.90
2019-02-15T00:02:59.103Z,0.80
2019-02-15T00:04:03.697Z,0.80
2019-02-15T00:05:08.307Z,0.80
2019-02-15T00:06:12.850Z,0.80
2019-02-15T00:07:17.429Z,0.80
2019-02-15T00:08:21.998Z,0.80
2019-02-15T00:09:26.592Z,0.80
2019-02-15T00:10:31.173Z,0.80
2019-02-15T00:11:35.744Z,0.80
2019-02-15T00:12:40.264Z,0.80
2019-02-15T00:13:44.822Z,0.70
2019-02-15T00:14:50.375Z,0.70
2019-02-15T00:15:54.919Z,0.70
2019-02-15T00:16:59.470Z,0.70
2019-02-15T00:18:19.889Z,0.60
2019-02-15T00:19:30.248Z,0.60
2019-02-15T00:20:37.543Z,0.70
2019-02-15T00:21:44.861Z,0.60
2019-02-15T00:22:49.421Z,0.60
2019-02-15T00:23:54.046Z,0.60
2019-02-15T00:24:58.612Z,0.60
2019-02-15T00:26:03.178Z,0.60
2019-02-15T00:27:07.747Z,0.60
2019-02-15T00:28:12.317Z,0.60
2019-02-15T00:29:16.900Z,0.60
2019-02-15T00:30:21.458Z,0.60
2019-02-15T00:31:26.102Z,0.60
2019-02-15T00:32:30.679Z,0.50
2019-02-15T00:33:35.331Z,0.50
2019-02-15T00:34:39.895Z,0.50
2019-02-15T00:35:44.485Z,0.50
2019-02-15T00:36:49.034Z,0.50
2019-02-15T00:37:53.617Z,0.50
2019-02-15T00:38:58.286Z,0.50
2019-02-15T00:40:02.917Z,0.50
2019-02-15T00:41:07.502Z,0.50
2019-02-15T00:42:12.047Z,0.50
2019-02-15T00:43:22.085Z,0.50
2019-02-15T00:44:22.907Z,0.50
2019-02-15T00:45:29.903Z,0.50
2019-02-15T00:46:51.009Z,0.40
2019-02-15T00:48:00.305Z,0.40
2019-02-15T00:49:06.392Z,0.40
2019-02-15T00:50:23.087Z,0.40
2019-02-15T00:51:51.107Z,0.40
2019-02-15T00:53:20.275Z,0.40
2019-02-15T00:54:59.077Z,0.40
2019-02-15T00:56:14.026Z,0.40
2019-02-15T00:57:37.763Z,0.40
2019-02-15T00:58:51.766Z,0.40
2019-02-15T01:00:18.871Z,0.40
2019-02-15T01:01:42.551Z,0.40
2019-02-15T01:03:04.292Z,0.40
2019-02-15T01:04:33.651Z,0.40
2019-02-15T01:05:46.211Z,0.30
2019-02-15T01:07:00.324Z,0.30
2019-02-15T01:08:30.921Z,0.30
2019-02-15T01:09:57.741Z,0.30
2019-02-15T01:11:13.584Z,0.30
2019-02-15T01:12:21.648Z,0.30
2019-02-15T01:13:31.130Z,0.30
2019-02-15T01:14:32.728Z,0.30
2019-02-15T01:15:37.320Z,0.20
2019-02-15T01:16:42.162Z,0.30
2019-02-15T01:17:46.755Z,0.30
2019-02-15T01:18:51.399Z,0.20
2019-02-15T01:19:55.959Z,0.20
2019-02-15T01:21:00.553Z,0.20
2019-02-15T01:22:05.192Z,0.20
2019-02-15T01:23:09.887Z,0.30
2019-02-15T01:24:14.500Z,0.30
2019-02-15T01:25:19.116Z,0.20
2019-02-15T01:26:51.758Z,0.20
2019-02-15T01:28:07.488Z,0.20
2019-02-15T01:29:36.981Z,0.20
2019-02-15T01:31:08.064Z,0.20
2019-02-15T01:32:24.493Z,0.20
2019-02-15T01:33:51.028Z,0.20
2019-02-15T01:35:06.868Z,0.20
2019-02-15T01:36:21.034Z,0.10
2019-02-15T01:37:34.434Z,0.10
2019-02-15T01:38:56.096Z,0.10
2019-02-15T01:40:15.012Z,0.10
2019-02-15T01:41:31.069Z,0.10
2019-02-15T01:42:43.760Z,0.10
2019-02-15T01:43:53.828Z,0.10
2019-02-15T01:45:07.595Z,0.10
2019-02-15T01:46:16.497Z,0.10
2019-02-15T01:47:30.444Z,0.10
2019-02-15T01:48:35.010Z,0.10
2019-02-15T01:49:39.568Z,0.10
2019-02-15T01:50:44.171Z,0.00
2019-02-15T01:51:48.801Z,0.00
2019-02-15T01:52:53.461Z,0.00
2019-02-15T01:53:58.053Z,0.00
2019-02-15T01:55:02.647Z,0.00
2019-02-15T01:56:07.251Z,0.00
2019-02-15T01:57:11.865Z,0.00
2019-02-15T01:58:16.451Z,0.00
2019-02-15T01:59:21.045Z,0.00
2019-02-15T02:00:27.959Z,0.00
2019-02-15T02:01:32.536Z,0.00
2019-02-15T02:02:37.088Z,0.00
2019-02-15T02:03:41.680Z,0.00
2019-02-15T02:04:46.240Z,0.00
2019-02-15T02:05:50.848Z,0.00
2019-02-15T02:06:55.399Z,0.00
2019-02-15T02:08:00.068Z,0.00
2019-02-15T02:09:05.273Z,0.00
2019-02-15T02:10:10.745Z,0.00
2019-02-15T02:11:15.326Z,-0.10
2019-02-15T02:12:19.941Z,-0.10
2019-02-15T02:13:24.779Z,-0.10
2019-02-15T02:14:29.449Z,-0.10
2019-02-15T02:15:34.017Z,0.00
2019-02-15T02:16:38.617Z,0.00
2019-02-15T02:17:43.183Z,-0.10
2019-02-15T02:18:47.756Z,-0.10
2019-02-15T02:19:52.323Z,-0.10
2019-02-15T02:20:56.915Z,-0.10
2019-02-15T02:22:01.484Z,-0.10
2019-02-15T02:23:06.039Z,-0.10
2019-02-15T02:24:10.615Z,-0.10
2019-02-15T02:25:16.191Z,-0.10
2019-02-15T02:26:20.768Z,-0.20
2019-02-15T02:27:25.348Z,-0.10
2019-02-15T02:28:29.903Z,-0.20
2019-02-15T02:29:34.476Z,-0.10
2019-02-15T02:30:39.198Z,-0.20
2019-02-15T02:31:43.780Z,-0.10
2019-02-15T02:32:48.355Z,-0.20
2019-02-15T02:33:52.968Z,-0.10
2019-02-15T02:34:57.596Z,-0.10
2019-02-15T02:36:02.271Z,-0.10
2019-02-15T02:37:06.884Z,-0.10
2019-02-15T02:38:11.560Z,-0.20
2019-02-15T02:39:16.392Z,-0.20
2019-02-15T02:40:20.948Z,-0.20
2019-02-15T02:41:25.555Z,-0.20
2019-02-15T02:42:30.700Z,-0.20
2019-02-15T02:43:35.724Z,-0.20
2019-02-15T02:44:40.566Z,-0.20
2019-02-15T02:45:45.326Z,-0.20
2019-02-15T02:46:51.288Z,-0.20
2019-02-15T02:47:55.979Z,-0.20
2019-02-15T02:49:00.592Z,-0.20
2019-02-15T02:50:05.419Z,-0.20
2019-02-15T02:51:13.365Z,-0.10
2019-02-15T02:52:18.664Z,-0.10
2019-02-15T02:53:23.488Z,-0.20
2019-02-15T02:54:28.199Z,-0.20
2019-02-15T02:55:32.858Z,-0.20
2019-02-15T02:56:37.475Z,-0.20
2019-02-15T02:57:42.021Z,-0.20
2019-02-15T02:58:46.582Z,-0.20
2019-02-15T02:59:51.234Z,-0.20
2019-02-15T03:00:55.862Z,-0.20
2019-02-15T03:02:00.606Z,-0.20
2019-02-15T03:03:05.284Z,-0.20
2019-02-15T03:04:09.952Z,-0.20
2019-02-15T03:05:14.599Z,-0.10
2019-02-15T03:06:19.195Z,-0.20
2019-02-15T03:07:24.092Z,-0.20
2019-02-15T03:08:28.775Z,-0.20
2019-02-15T03:09:33.350Z,-0.20
2019-02-15T03:10:37.911Z,-0.20
2019-02-15T03:11:42.526Z,-0.20
2019-02-15T03:12:47.201Z,-0.20
2019-02-15T03:13:51.858Z,-0.20
2019-02-15T03:14:56.466Z,-0.20
2019-02-15T03:16:01.007Z,-0.20
2019-02-15T03:17:05.553Z,-0.20
2019-02-15T03:18:10.104Z,-0.20
2019-02-15T03:19:14.706Z,-0.20
2019-02-15T03:20:30.326Z,-0.20
2019-02-15T03:21:25.578Z,-0.20
2019-02-15T03:22:30.160Z,-0.20
2019-02-15T03:23:34.721Z,-0.20
2019-02-15T03:24:39.297Z,-0.20
2019-02-15T03:25:43.839Z,-0.20
2019-02-15T03:26:48.399Z,-0.20
2019-02-15T03:27:52.961Z,-0.20
2019-02-15T03:28:58.491Z,-0.20
2019-02-15T03:30:03.104Z,-0.20
2019-02-15T03:31:08.755Z,-0.20
2019-02-15T03:32:13.318Z,-0.20
2019-02-15T03:33:17.903Z,-0.30
2019-02-15T03:34:22.552Z,-0.20
2019-02-15T03:35:27.162Z,-0.20
2019-02-15T03:36:56.942Z,-0.30
2019-02-15T03:38:20.619Z,-0.30
2019-02-15T03:39:44.332Z,-0.30
2019-02-15T03:40:52.016Z,-0.30
2019-02-15T03:41:56.621Z,-0.30
2019-02-15T03:43:01.202Z,-0.30
2019-02-15T03:44:05.771Z,-0.30
2019-02-15T03:45:10.511Z,-0.30
2019-02-15T03:46:15.103Z,-0.30
2019-02-15T03:47:25.096Z,-0.30
2019-02-15T03:48:29.721Z,-0.30
2019-02-15T03:49:34.347Z,-0.30
2019-02-15T03:50:42.192Z,-0.30
2019-02-15T03:51:46.813Z,-0.30
2019-02-15T03:52:51.413Z,-0.30
2019-02-15T03:53:55.960Z,-0.30
2019-02-15T03:55:00.722Z,-0.30
2019-02-15T03:56:05.352Z,-0.30
2019-02-15T03:57:09.930Z,-0.30
2019-02-15T03:58:14.511Z,-0.30
2019-02-15T03:59:19.083Z,-0.30
2019-02-15T04:00:23.796Z,-0.30
2019-02-15T04:01:28.400Z,-0.30
2019-02-15T04:02:33.236Z,-0.30
2019-02-15T04:03:37.800Z,-0.30
2019-02-15T04:04:42.403Z,-0.30
2019-02-15T04:05:47.077Z,-0.30
2019-02-15T04:06:55.023Z,-0.30
2019-02-15T04:07:59.649Z,-0.30
2019-02-15T04:09:05.276Z,-0.30
2019-02-15T04:10:10.101Z,-0.20
2019-02-15T04:11:14.705Z,-0.30
2019-02-15T04:12:19.268Z,-0.20
2019-02-15T04:13:23.903Z,-0.30
2019-02-15T04:14:32.905Z,-0.30
2019-02-15T04:15:36.050Z,-0.20
2019-02-15T04:16:40.591Z,-0.30
2019-02-15T04:17:45.233Z,-0.30
2019-02-15T04:18:52.795Z,-0.30
2019-02-15T04:19:57.415Z,-0.30
2019-02-15T04:21:02.057Z,-0.30
2019-02-15T04:22:06.669Z,-0.30
2019-02-15T04:23:11.254Z,-0.30
2019-02-15T04:24:15.833Z,-0.30
2019-02-15T04:25:20.382Z,-0.30
2019-02-15T04:26:24.982Z,-0.30
2019-02-15T04:27:29.612Z,-0.30
2019-02-15T04:28:34.194Z,-0.30
2019-02-15T04:29:38.892Z,-0.30
2019-02-15T04:30:43.573Z,-0.30
2019-02-15T04:31:48.202Z,-0.30
2019-02-15T04:32:52.785Z,-0.30
2019-02-15T04:34:00.169Z,-0.30
2019-02-15T04:35:04.952Z,-0.30
2019-02-15T04:36:09.538Z,-0.30
2019-02-15T04:37:14.143Z,-0.30
2019-02-15T04:38:18.749Z,-0.30
2019-02-15T04:39:23.490Z,-0.30
2019-02-15T04:40:28.091Z,-0.30
2019-02-15T04:41:33.763Z,-0.30
2019-02-15T04:42:38.368Z,-0.30
2019-02-15T04:43:42.944Z,-0.30
2019-02-15T04:44:47.538Z,-0.30
2019-02-15T04:45:52.117Z,-0.30
2019-02-15T04:46:57.000Z,-0.30
2019-02-15T04:48:02.453Z,-0.30
2019-02-15T04:49:07.106Z,-0.30
2019-02-15T04:50:11.703Z,-0.30
2019-02-15T04:51:16.314Z,-0.30
2019-02-15T04:52:20.978Z,-0.30
2019-02-15T04:53:26.560Z,-0.30
2019-02-15T04:54:31.136Z,-0.30
2019-02-15T04:55:35.795Z,-0.30
2019-02-15T04:56:40.343Z,-0.30
2019-02-15T04:57:44.930Z,-0.30
2019-02-15T04:58:49.712Z,-0.30
2019-02-15T04:59:54.295Z,-0.30
2019-02-15T05:00:58.924Z,-0.30
2019-02-15T05:02:04.454Z,-0.30
2019-02-15T05:03:09.040Z,-0.30
2019-02-15T05:04:13.598Z,-0.30
2019-02-15T05:05:18.178Z,-0.40
2019-02-15T05:06:22.755Z,-0.40
2019-02-15T05:07:28.292Z,-0.40
2019-02-15T05:08:32.939Z,-0.40
2019-02-15T05:09:37.725Z,-0.40
2019-02-15T05:10:42.348Z,-0.40
2019-02-15T05:11:47.002Z,-0.40
2019-02-15T05:12:51.626Z,-0.40
2019-02-15T05:13:57.939Z,-0.40
2019-02-15T05:15:02.545Z,-0.40
2019-02-15T05:16:07.099Z,-0.40
2019-02-15T05:17:11.665Z,-0.40
2019-02-15T05:18:16.219Z,-0.40
2019-02-15T05:19:20.828Z,-0.40
2019-02-15T05:20:25.402Z,-0.40
2019-02-15T05:21:29.942Z,-0.40
2019-02-15T05:22:34.526Z,-0.40
2019-02-15T05:23:39.094Z,-0.40
2019-02-15T05:24:44.633Z,-0.40
2019-02-15T05:25:49.190Z,-0.40
2019-02-15T05:26:53.793Z,-0.40
2019-02-15T05:27:59.358Z,-0.40
2019-02-15T05:29:04.035Z,-0.50
2019-02-15T05:30:08.759Z,-0.40
2019-02-15T05:31:13.351Z,-0.40
2019-02-15T05:32:17.988Z,-0.50
2019-02-15T05:33:22.559Z,-0.40
2019-02-15T05:34:27.171Z,-0.50
2019-02-15T05:35:31.763Z,-0.50
2019-02-15T05:36:36.350Z,-0.50
2019-02-15T05:37:41.066Z,-0.50
2019-02-15T05:38:45.654Z,-0.50
2019-02-15T05:39:50.278Z,-0.50
2019-02-15T05:40:54.861Z,-0.50
2019-02-15T05:41:59.439Z,-0.50
2019-02-15T05:43:04.024Z,-0.50
2019-02-15T05:44:08.582Z,-0.50
2019-02-15T05:45:13.159Z,-0.50
2019-02-15T05:46:17.796Z,-0.50
2019-02-15T05:47:22.354Z,-0.50
2019-02-15T05:48:26.999Z,-0.50
2019-02-15T05:49:31.574Z,-0.50
2019-02-15T05:50:36.155Z,-0.50
2019-02-15T05:51:40.708Z,-0.50
2019-02-15T05:52:45.279Z,-0.50
2019-02-15T05:53:49.864Z,-0.60
2019-02-15T05:54:54.480Z,-0.60
2019-02-15T05:55:59.025Z,-0.60
2019-02-15T05:57:03.580Z,-0.60
2019-02-15T05:58:09.143Z,-0.60
2019-02-15T05:59:13.719Z,-0.60
2019-02-15T06:00:18.299Z,-0.60
2019-02-15T06:01:24.143Z,-0.60
2019-02-15T06:02:28.706Z,-0.60
2019-02-15T06:03:33.474Z,-0.60
2019-02-15T06:04:38.131Z,-0.60
2019-02-15T06:05:42.756Z,-0.60
2019-02-15T06:06:47.323Z,-0.70
2019-02-15T06:07:51.900Z,-0.70
2019-02-15T06:08:56.452Z,-0.70
2019-02-15T06:10:01.062Z,-0.70
2019-02-15T06:11:07.855Z,-0.70
2019-02-15T06:12:12.011Z,-0.70
2019-02-15T06:13:17.556Z,-0.70
2019-02-15T06:14:22.178Z,-0.70
2019-02-15T06:15:26.783Z,-0.70
2019-02-15T06:16:31.406Z,-0.70
2019-02-15T06:17:35.971Z,-0.70
2019-02-15T06:18:40.542Z,-0.70
2019-02-15T06:19:45.288Z,-0.80
2019-02-15T06:20:49.959Z,-0.80
2019-02-15T06:21:54.534Z,-0.70
2019-02-15T06:22:59.168Z,-0.70
2019-02-15T06:24:03.735Z,-0.70
2019-02-15T06:25:08.373Z,-0.70
2019-02-15T06:26:13.007Z,-0.70
2019-02-15T06:27:17.623Z,-0.70
2019-02-15T06:28:22.221Z,-0.70
2019-02-15T06:29:27.769Z,-0.70
2019-02-15T06:30:32.361Z,-0.70
2019-02-15T06:31:36.931Z,-0.70
2019-02-15T06:32:41.703Z,-0.70
2019-02-15T06:33:46.292Z,-0.70
2019-02-15T06:34:50.924Z,-0.70
2019-02-15T06:35:55.502Z,-0.70
2019-02-15T06:37:00.086Z,-0.70
2019-02-15T06:38:04.734Z,-0.70
2019-02-15T06:39:09.466Z,-0.70
2019-02-15T06:40:14.260Z,-0.70
2019-02-15T06:41:18.875Z,-0.70
2019-02-15T06:42:23.526Z,-0.70
2019-02-15T06:43:28.093Z,-0.70
2019-02-15T06:44:32.875Z,-0.70
2019-02-15T06:45:37.479Z,-0.70
2019-02-15T06:46:42.134Z,-0.70
2019-02-15T06:47:46.718Z,-0.70
2019-02-15T06:48:51.401Z,-0.70
2019-02-15T06:49:56.009Z,-0.70
2019-02-15T06:51:00.645Z,-0.60
2019-02-15T06:52:06.307Z,-0.60
2019-02-15T06:53:10.964Z,-0.60
2019-02-15T06:54:15.586Z,-0.60
2019-02-15T06:55:20.436Z,-0.60
2019-02-15T06:56:25.122Z,-0.60
2019-02-15T06:57:29.794Z,-0.60
2019-02-15T06:58:36.052Z,-0.60
2019-02-15T06:59:48.758Z,-0.60
2019-02-15T07:01:00.552Z,-0.60
2019-02-15T07:02:21.830Z,-0.60
2019-02-15T07:03:43.854Z,-0.50
2019-02-15T07:05:03.350Z,-0.50
2019-02-15T07:06:07.939Z,-0.50
2019-02-15T07:07:12.633Z,-0.50
2019-02-15T07:08:17.251Z,-0.50
2019-02-15T07:09:21.897Z,-0.40
2019-02-15T07:10:26.513Z,-0.40
2019-02-15T07:11:31.228Z,-0.40
2019-02-15T07:12:35.771Z,-0.30
2019-02-15T07:13:40.355Z,-0.30
2019-02-15T07:14:44.986Z,-0.30
2019-02-15T07:15:49.582Z,-0.30
2019-02-15T07:16:54.176Z,-0.20
2019-02-15T07:17:58.814Z,-0.10
2019-02-15T07:19:03.400Z,-0.10
2019-02-15T07:20:09.034Z,-0.10
2019-02-15T07:21:13.659Z,-0.10
2019-02-15T07:22:18.286Z,-0.10
2019-02-15T07:23:22.941Z,0.00
2019-02-15T07:24:27.593Z,0.00
2019-02-15T07:25:32.209Z,0.00
2019-02-15T07:26:36.941Z,0.00
2019-02-15T07:27:41.520Z,0.10
2019-02-15T07:28:46.092Z,0.10
2019-02-15T07:29:50.711Z,0.20
2019-02-15T07:30:55.420Z,0.20
2019-02-15T07:32:00.080Z,0.20
2019-02-15T07:33:04.652Z,0.30
2019-02-15T07:34:09.331Z,0.30
2019-02-15T07:35:13.952Z,0.30
2019-02-15T07:36:18.550Z,0.40
2019-02-15T07:37:23.223Z,0.40
2019-02-15T07:38:27.789Z,0.50
2019-02-15T07:39:32.327Z,0.50
2019-02-15T07:40:36.901Z,0.50
2019-02-15T07:41:41.608Z,0.60
2019-02-15T07:42:46.251Z,0.60
2019-02-15T07:43:50.810Z,0.70
2019-02-15T07:44:55.377Z,0.70
2019-02-15T07:46:00.017Z,0.70
2019-02-15T07:47:04.629Z,0.80
2019-02-15T07:48:09.305Z,0.80
2019-02-15T07:49:13.868Z,0.80
2019-02-15T07:50:18.483Z,0.90
2019-02-15T07:51:23.140Z,0.90
2019-02-15T07:52:27.716Z,0.90
2019-02-15T07:53:32.322Z,1.00
2019-02-15T07:54:36.966Z,1.00
2019-02-15T07:55:41.567Z,1.00
2019-02-15T07:56:46.215Z,1.10
2019-02-15T07:57:50.755Z,1.10
2019-02-15T07:58:55.312Z,1.10
2019-02-15T08:00:00.643Z,1.20
2019-02-15T08:01:05.531Z,1.20
2019-02-15T08:02:10.203Z,1.20
2019-02-15T08:03:14.787Z,1.20
2019-02-15T08:04:19.384Z,1.30
2019-02-15T08:05:24.947Z,1.40
2019-02-15T08:06:29.539Z,1.40
2019-02-15T08:07:34.124Z,1.50
2019-02-15T08:08:38.695Z,1.50
2019-02-15T08:09:43.239Z,1.50
2019-02-15T08:10:48.134Z,1.60
2019-02-15T08:11:52.795Z,1.60
2019-02-15T08:12:57.408Z,1.60
2019-02-15T08:14:02.000Z,1.70
2019-02-15T08:15:07.223Z,1.70
2019-02-15T08:16:11.836Z,1.70
2019-02-15T08:17:16.407Z,1.70
2019-02-15T08:18:21.134Z,1.80
2019-02-15T08:19:25.913Z,1.80
2019-02-15T08:20:30.582Z,1.80
2019-02-15T08:21:35.260Z,1.90
2019-02-15T08:22:39.826Z,1.90
2019-02-15T08:23:44.585Z,2.00
2019-02-15T08:24:49.199Z,2.00
2019-02-15T08:25:53.813Z,2.10
2019-02-15T08:26:58.586Z,2.10
2019-02-15T08:28:03.351Z,2.10
2019-02-15T08:29:08.124Z,2.20
2019-02-15T08:30:12.855Z,2.20
2019-02-15T08:31:17.501Z,2.30
2019-02-15T08:32:22.123Z,2.40
2019-02-15T08:33:26.726Z,2.40
2019-02-15T08:34:31.319Z,2.50
2019-02-15T08:35:35.902Z,2.50
2019-02-15T08:36:40.545Z,2.60
2019-02-15T08:37:45.272Z,2.70
2019-02-15T08:38:49.931Z,2.70
2019-02-15T08:39:54.525Z,2.80
2019-02-15T08:40:59.191Z,2.80
2019-02-15T08:42:04.602Z,2.90
2019-02-15T08:43:09.336Z,3.00
2019-02-15T08:44:13.925Z,3.10
2019-02-15T08:45:18.711Z,3.20
2019-02-15T08:46:23.286Z,3.50
2019-02-15T08:47:27.942Z,4.00
2019-02-15T08:48:32.516Z,4.50
2019-02-15T08:49:37.091Z,5.20
2019-02-15T08:50:42.053Z,5.80
2019-02-15T08:51:46.809Z,6.40
2019-02-15T08:52:51.369Z,7.00
2019-02-15T08:53:55.979Z,7.40
2019-02-15T08:55:00.552Z,7.70
2019-02-15T08:56:05.261Z,7.80
2019-02-15T08:57:09.839Z,7.80
2019-02-15T08:58:14.411Z,7.70
2019-02-15T08:59:19.041Z,7.50
2019-02-15T09:00:23.607Z,7.30
2019-02-15T09:01:28.149Z,7.10
2019-02-15T09:02:32.739Z,6.90
2019-02-15T09:03:37.294Z,6.80
2019-02-15T09:04:41.863Z,6.90
2019-02-15T09:05:46.642Z,7.00
2019-02-15T09:06:51.326Z,7.00
2019-02-15T09:07:55.890Z,7.20
2019-02-15T09:09:01.209Z,7.20
2019-02-15T09:10:09.320Z,7.30
2019-02-15T09:11:13.933Z,7.40
2019-02-15T09:12:18.684Z,7.40
2019-02-15T09:13:23.855Z,7.40
2019-02-15T09:14:28.450Z,7.30
2019-02-15T09:15:33.004Z,7.20
2019-02-15T09:16:37.593Z,7.10
2019-02-15T09:17:42.137Z,7.00
2019-02-15T09:18:50.057Z,7.00
2019-02-15T09:19:56.576Z,7.00
2019-02-15T09:21:01.148Z,7.00
2019-02-15T09:22:05.680Z,6.90
2019-02-15T09:23:12.198Z,6.80
2019-02-15T09:24:16.518Z,6.80
2019-02-15T09:25:21.067Z,6.70
2019-02-15T09:26:25.639Z,6.70
2019-02-15T09:27:55.354Z,6.70
2019-02-15T09:29:02.688Z,6.60
2019-02-15T09:30:08.976Z,6.60
2019-02-15T09:31:13.519Z,6.60
2019-02-15T09:32:18.123Z,6.60
2019-02-15T09:33:22.675Z,6.60
2019-02-15T09:34:28.195Z,6.60
2019-02-15T09:35:32.807Z,6.60
2019-02-15T09:36:37.441Z,6.70
2019-02-15T09:37:42.038Z,6.70
2019-02-15T09:38:46.612Z,6.70
2019-02-15T09:39:51.235Z,6.70
2019-02-15T09:40:55.804Z,6.70
2019-02-15T09:42:00.415Z,6.80
2019-02-15T09:43:05.085Z,6.80
2019-02-15T09:44:09.643Z,6.80
2019-02-15T09:45:15.181Z,6.80
2019-02-15T09:46:20.371Z,6.80
2019-02-15T09:47:26.112Z,6.80
2019-02-15T09:48:31.040Z,6.80
2019-02-15T09:49:35.899Z,6.90
2019-02-15T09:50:40.548Z,6.90
2019-02-15T09:51:45.297Z,7.00
2019-02-15T09:52:49.890Z,7.00
2019-02-15T09:53:54.456Z,7.10
2019-02-15T09:54:59.055Z,7.10
2019-02-15T09:56:03.654Z,7.10
2019-02-15T09:57:08.234Z,7.10
2019-02-15T09:58:12.914Z,7.20
2019-02-15T09:59:17.604Z,7.20
2019-02-15T10:00:22.255Z,7.20
2019-02-15T10:01:26.824Z,7.20
2019-02-15T10:02:31.412Z,7.30
2019-02-15T10:03:35.969Z,7.30
2019-02-15T10:04:40.515Z,7.20
2019-02-15T10:05:45.079Z,7.30
2019-02-15T10:06:49.665Z,7.30
2019-02-15T10:07:54.408Z,7.40
2019-02-15T10:08:59.101Z,7.40
2019-02-15T10:10:03.886Z,7.40
2019-02-15T10:11:08.564Z,7.50
2019-02-15T10:12:13.154Z,7.50
2019-02-15T10:13:17.738Z,7.60
2019-02-15T10:14:22.335Z,7.60
2019-02-15T10:15:27.871Z,7.60
2019-02-15T10:16:32.409Z,7.60
2019-02-15T10:17:36.997Z,7.60
2019-02-15T10:18:41.613Z,7.60
2019-02-15T10:19:46.163Z,7.60
2019-02-15T10:20:50.718Z,7.60
2019-02-15T10:21:55.299Z,7.60
2019-02-15T10:22:59.873Z,7.60
2019-02-15T10:24:04.475Z,7.60
2019-02-15T10:25:09.132Z,7.60
2019-02-15T10:26:13.718Z,7.70
2019-02-15T10:27:18.319Z,7.70
2019-02-15T10:28:22.875Z,7.70
2019-02-15T10:29:27.455Z,7.70
2019-02-15T10:30:32.033Z,7.80
2019-02-15T10:31:36.588Z,7.80
2019-02-15T10:32:41.159Z,7.80
2019-02-15T10:33:45.719Z,7.90
2019-02-15T10:34:50.361Z,7.90
2019-02-15T10:35:54.960Z,7.90
2019-02-15T10:36:59.570Z,7.90
2019-02-15T10:38:04.201Z,8.00
2019-02-15T10:39:09.056Z,8.00
2019-02-15T10:40:13.641Z,8.00
2019-02-15T10:41:18.214Z,8.00
2019-02-15T10:42:22.864Z,8.10
2019-02-15T10:43:27.408Z,8.10
2019-02-15T10:44:31.998Z,8.10
2019-02-15T10:45:36.565Z,8.20
2019-02-15T10:46:41.098Z,8.20
2019-02-15T10:47:45.674Z,8.20
2019-02-15T10:48:51.213Z,8.30
2019-02-15T10:49:55.805Z,8.30
2019-02-15T10:51:00.370Z,8.40
2019-02-15T10:52:04.973Z,8.40
2019-02-15T10:53:11.003Z,8.40
2019-02-15T10:54:15.804Z,8.40
2019-02-15T10:55:20.441Z,8.50
2019-02-15T10:56:25.122Z,8.50
2019-02-15T10:57:29.686Z,8.60
2019-02-15T10:58:34.301Z,8.70
2019-02-15T10:59:38.914Z,8.70
2019-02-15T11:00:43.531Z,8.80
2019-02-15T11:01:48.229Z,8.90
2019-02-15T11:02:52.829Z,8.90
2019-02-15T11:03:57.430Z,9.00
2019-02-15T11:05:01.987Z,9.00
2019-02-15T11:06:06.620Z,9.00
2019-02-15T11:07:11.276Z,8.90
2019-02-15T11:08:15.904Z,8.90
2019-02-15T11:09:20.605Z,8.90
2019-02-15T11:10:25.170Z,9.00
2019-02-15T11:11:29.798Z,9.00
2019-02-15T11:12:34.414Z,9.10
2019-02-15T11:13:38.980Z,9.10
2019-02-15T11:14:43.594Z,9.10
2019-02-15T11:15:48.191Z,9.20
2019-02-15T11:16:52.798Z,9.30
2019-02-15T11:17:57.392Z,9.40
2019-02-15T11:19:01.981Z,9.50
2019-02-15T11:20:07.591Z,9.50
2019-02-15T11:21:12.203Z,9.60
2019-02-15T11:22:16.904Z,9.70
2019-02-15T11:23:21.600Z,9.80
2019-02-15T11:24:26.216Z,9.80
2019-02-15T11:25:30.903Z,9.80
2019-02-15T11:26:35.534Z,9.80
2019-02-15T11:27:40.242Z,9.90
2019-02-15T11:28:44.891Z,9.90
2019-02-15T11:29:49.464Z,9.90
2019-02-15T11:30:54.078Z,10.00
2019-02-15T11:31:58.670Z,10.00
2019-02-15T11:33:03.373Z,10.10
2019-02-15T11:34:08.924Z,10.10
2019-02-15T11:35:13.595Z,10.20
2019-02-15T11:36:18.315Z,10.20
2019-02-15T11:37:22.856Z,10.30
2019-02-15T11:38:27.439Z,10.30
2019-02-15T11:39:32.034Z,10.30
2019-02-15T11:40:36.611Z,10.40
2019-02-15T11:41:41.183Z,10.40
2019-02-15T11:42:45.767Z,10.50
2019-02-15T11:43:50.466Z,10.50
2019-02-15T11:44:55.083Z,10.50
2019-02-15T11:45:59.844Z,10.50
2019-02-15T11:47:04.478Z,10.60
2019-02-15T11:48:09.397Z,10.70
2019-02-15T11:49:14.404Z,10.70
2019-02-15T11:50:20.649Z,10.80
2019-02-15T11:51:25.373Z,10.80
2019-02-15T11:52:29.921Z,10.80
2019-02-15T11:53:35.149Z,10.80
2019-02-15T11:54:43.126Z,10.80
2019-02-15T11:55:48.051Z,10.90
2019-02-15T11:56:52.862Z,10.90
2019-02-15T11:57:57.706Z,10.90
2019-02-15T11:59:02.282Z,10.90
2019-02-15T12:00:14.265Z,11.00
2019-02-15T12:01:15.285Z,11.00
2019-02-15T12:02:22.043Z,11.00
2019-02-15T12:03:26.740Z,11.00
2019-02-15T12:04:31.390Z,11.10
2019-02-15T12:05:36.559Z,11.10
2019-02-15T12:06:41.302Z,11.10
2019-02-15T12:07:45.858Z,11.10
2019-02-15T12:08:50.452Z,11.10
2019-02-15T12:10:00.893Z,11.10
2019-02-15T12:11:05.471Z,11.10
2019-02-15T12:12:11.146Z,11.20
2019-02-15T12:13:16.100Z,11.20
2019-02-15T12:14:20.677Z,11.20
2019-02-15T12:15:25.253Z,11.30
2019-02-15T12:16:30.356Z,11.30
2019-02-15T12:17:35.095Z,11.30
2019-02-15T12:18:40.174Z,11.30
2019-02-15T12:19:44.894Z,11.30
2019-02-15T12:20:49.629Z,11.30
2019-02-15T12:21:54.392Z,11.30
2019-02-15T12:22:59.791Z,11.30
2019-02-15T12:24:04.767Z,11.40
2019-02-15T12:25:09.856Z,11.40
2019-02-15T12:26:24.074Z,11.40
2019-02-15T12:27:29.183Z,11.40
2019-02-15T12:28:34.065Z,11.50
2019-02-15T12:29:40.288Z,11.50
2019-02-15T12:30:45.572Z,11.50
2019-02-15T12:31:50.239Z,11.50
2019-02-15T12:32:54.959Z,11.60
2019-02-15T12:33:59.545Z,11.60
2019-02-15T12:35:06.283Z,11.60
2019-02-15T12:36:11.037Z,11.60
2019-02-15T12:37:15.827Z,11.70
2019-02-15T12:38:22.536Z,11.70
2019-02-15T12:39:27.196Z,11.80
2019-02-15T12:40:32.075Z,11.80
2019-02-15T12:41:37.900Z,11.80
2019-02-15T12:42:42.511Z,11.90
2019-02-15T12:43:47.713Z,11.90
2019-02-15T12:44:52.387Z,11.90
2019-02-15T12:45:56.971Z,11.90
2019-02-15T12:47:01.636Z,11.90
2019-02-15T12:48:06.224Z,11.90
2019-02-15T12:49:10.875Z,12.00
2019-02-15T12:50:15.687Z,12.00
2019-02-15T12:51:20.256Z,12.00
2019-02-15T12:52:24.854Z,12.00
2019-02-15T12:53:29.511Z,12.00
2019-02-15T12:54:34.199Z,12.00
2019-02-15T12:55:38.904Z,12.00
2019-02-15T12:56:43.871Z,12.00
2019-02-15T12:57:48.582Z,12.00
2019-02-15T12:58:53.343Z,12.00
2019-02-15T12:59:57.907Z,12.00
2019-02-15T13:01:02.508Z,12.10
2019-02-15T13:02:07.219Z,12.10
2019-02-15T13:03:11.821Z,12.10
2019-02-15T13:04:16.509Z,12.10
2019-02-15T13:05:21.383Z,12.10
2019-02-15T13:06:28.655Z,12.10
2019-02-15T13:07:32.914Z,12.10
2019-02-15T13:08:37.672Z,12.20
2019-02-15T13:09:42.328Z,12.10
2019-02-15T13:10:46.959Z,12.10
2019-02-15T13:11:51.540Z,12.10
2019-02-15T13:12:56.268Z,12.10
2019-02-15T13:14:00.892Z,12.10
2019-02-15T13:15:05.816Z,12.10
2019-02-15T13:16:10.361Z,12.10
2019-02-15T13:17:24.208Z,12.20
2019-02-15T13:18:21.945Z,12.20
2019-02-15T13:19:26.739Z,12.20
2019-02-15T13:20:31.786Z,12.20
2019-02-15T13:21:36.432Z,12.20
2019-02-15T13:22:41.031Z,12.20
2019-02-15T13:23:45.634Z,12.20
2019-02-15T13:24:50.291Z,12.20
2019-02-15T13:25:54.998Z,12.20
2019-02-15T13:26:59.655Z,12.20
2019-02-15T13:28:04.308Z,12.20
2019-02-15T13:29:08.895Z,12.20
2019-02-15T13:30:13.922Z,12.20
2019-02-15T13:31:18.530Z,12.20
2019-02-15T13:32:23.240Z,12.20
2019-02-15T13:33:27.863Z,12.20
2019-02-15T13:34:32.577Z,12.20
2019-02-15T13:35:37.330Z,12.20
2019-02-15T13:36:42.015Z,12.20
2019-02-15T13:37:46.585Z,12.20
2019-02-15T13:38:57.120Z,12.20
2019-02-15T13:40:01.855Z,12.30
2019-02-15T13:41:08.267Z,12.30
2019-02-15T13:42:12.988Z,12.30
2019-02-15T13:43:17.850Z,12.30
2019-02-15T13:44:22.589Z,12.40
2019-02-15T13:45:29.389Z,12.40
2019-02-15T13:46:34.075Z,12.40
2019-02-15T13:47:38.683Z,12.40
2019-02-15T13:48:43.288Z,12.40
2019-02-15T13:49:48.245Z,12.30
2019-02-15T13:50:52.845Z,12.30
2019-02-15T13:51:59.613Z,12.30
2019-02-15T13:53:03.757Z,12.30
2019-02-15T13:54:08.446Z,12.40
2019-02-15T13:55:13.146Z,12.40
2019-02-15T13:56:18.101Z,12.50
2019-02-15T13:57:23.844Z,12.60
2019-02-15T13:58:28.401Z,12.70
2019-02-15T13:59:33.037Z,12.80
2019-02-15T14:00:37.635Z,12.80
2019-02-15T14:01:42.535Z,12.90
2019-02-15T14:02:47.142Z,13.00
2019-02-15T14:03:51.786Z,13.10
2019-02-15T14:04:56.565Z,13.20
2019-02-15T14:06:01.493Z,13.30
2019-02-15T14:07:17.288Z,13.40
2019-02-15T14:08:22.834Z,13.50
2019-02-15T14:09:27.405Z,13.60
2019-02-15T14:10:31.992Z,13.60
2019-02-15T14:11:36.959Z,13.70
2019-02-15T14:12:41.669Z,13.70
2019-02-15T14:13:47.601Z,13.70
2019-02-15T14:14:52.366Z,13.80
2019-02-15T14:15:57.183Z,13.80
2019-02-15T14:17:02.317Z,13.90
2019-02-15T14:18:07.282Z,13.80
2019-02-15T14:19:11.964Z,13.90